createdAt,value
2022-09-07T00:03:40.175Z,6.06
2022-09-07T00:08:45.994Z,5.93
2022-09-07T00:13:51.834Z,5.89
2022-09-07T00:18:59.467Z,5.94
2022-09-07T00:24:05.765Z,5.95
2022-09-07T00:29:11.842Z,5.91
2022-09-07T00:34:17.694Z,5.85
2022-09-07T00:39:23.534Z,5.75
2022-09-07T00:45:10.088Z,5.72
2022-09-07T00:50:23.835Z,5.78
2022-09-07T00:55:32.593Z,5.80
2022-09-07T01:00:39.767Z,5.75
2022-09-07T01:05:50.673Z,5.64
2022-09-07T01:10:58.289Z,5.55
2022-09-07T01:16:15.926Z,5.50
2022-09-07T01:21:27.546Z,5.41
2022-09-07T01:27:04.271Z,5.36
2022-09-07T01:32:20.210Z,5.33
2022-09-07T01:37:33.015Z,5.31
2022-09-07T01:42:51.174Z,5.27
2022-09-07T01:48:01.054Z,5.17
2022-09-07T01:53:11.901Z,5.06
2022-09-07T01:58:24.118Z,4.94
2022-09-07T02:03:35.838Z,4.92
2022-09-07T02:08:48.129Z,4.94
2022-09-07T02:13:59.335Z,4.90
2022-09-07T02:19:05.270Z,4.82
2022-09-07T02:24:16.321Z,4.74
2022-09-07T02:29:22.487Z,4.68
2022-09-07T02:34:28.268Z,4.61
2022-09-07T02:39:35.068Z,4.58
2022-09-07T02:44:45.689Z,4.59
2022-09-07T02:50:10.260Z,4.54
2022-09-07T02:55:27.236Z,4.46
2022-09-07T03:00:39.839Z,4.39
2022-09-07T03:05:50.454Z,4.36
2022-09-07T03:10:58.265Z,4.38
2022-09-07T03:16:04.487Z,4.39
2022-09-07T03:21:10.665Z,4.36
2022-09-07T03:26:25.273Z,4.32
2022-09-07T03:31:33.866Z,4.28
2022-09-07T03:36:40.275Z,4.28
2022-09-07T03:41:46.007Z,4.33
2022-09-07T03:46:52.306Z,4.37
2022-09-07T03:51:58.306Z,4.34
2022-09-07T03:57:04.597Z,4.30
2022-09-07T04:02:10.863Z,4.25
2022-09-07T04:07:17.002Z,4.21
2022-09-07T04:12:23.129Z,4.24
2022-09-07T04:17:28.902Z,4.28
2022-09-07T04:22:34.992Z,4.30
2022-09-07T04:27:40.869Z,4.31
2022-09-07T04:32:48.106Z,4.47
2022-09-07T04:37:53.988Z,4.67
2022-09-07T04:43:00.216Z,4.90
2022-09-07T04:48:06.567Z,5.22
2022-09-07T04:53:12.633Z,6.49
2022-09-07T04:58:18.419Z,7.00
2022-09-07T05:03:24.313Z,6.87
2022-09-07T05:08:30.833Z,6.79
2022-09-07T05:13:37.306Z,6.75
2022-09-07T05:18:43.683Z,6.90
2022-09-07T05:23:52.573Z,7.22
2022-09-07T05:39:37.962Z,16.88
2022-09-07T05:44:45.329Z,20.26
2022-09-07T05:49:55.247Z,23.21
2022-09-07T05:55:28.287Z,25.57
2022-09-07T06:00:29.116Z,27.50
2022-09-07T06:05:35.488Z,28.63
2022-09-07T06:15:51.941Z,29.97
2022-09-07T06:21:01.549Z,30.76
2022-09-07T06:26:09.761Z,32.09
2022-09-07T06:31:17.662Z,32.94
2022-09-07T06:36:25.146Z,33.75
2022-09-07T06:52:08.343Z,35.53
2022-09-07T06:57:14.508Z,35.75
2022-09-07T07:02:20.451Z,36.14
2022-09-07T07:07:26.474Z,36.42
2022-09-07T07:17:43.800Z,37.46
2022-09-07T07:22:52.907Z,37.60
2022-09-07T07:33:25.063Z,37.90
2022-09-07T07:44:00.529Z,37.68
2022-09-07T07:49:06.540Z,37.91
2022-09-07T07:54:12.331Z,37.78
2022-09-07T07:59:18.305Z,37.43
2022-09-07T08:04:48.986Z,37.18
2022-09-07T08:09:54.738Z,37.09
2022-09-07T08:15:00.587Z,37.03
2022-09-07T08:20:07.388Z,37.03
2022-09-07T08:25:13.038Z,37.06
2022-09-07T08:30:19.091Z,36.26
2022-09-07T08:35:24.821Z,36.00
2022-09-07T08:40:31.204Z,35.03
2022-09-07T08:45:42.603Z,35.05
2022-09-07T08:50:56.190Z,35.03
2022-09-07T08:56:05.689Z,34.84
2022-09-07T09:06:49.123Z,34.51
2022-09-07T09:12:06.651Z,34.82
2022-09-07T09:17:24.840Z,34.82
2022-09-07T09:22:31.096Z,34.85
2022-09-07T09:27:36.981Z,34.73
2022-09-07T09:32:44.523Z,34.65
2022-09-07T09:37:50.361Z,34.30
2022-09-07T09:43:05.190Z,34.33
2022-09-07T09:48:18.485Z,34.31
2022-09-07T09:53:28.069Z,33.61
2022-09-07T10:04:21.496Z,33.26
2022-09-07T10:09:38.135Z,33.14
2022-09-07T10:14:47.003Z,33.24
2022-09-07T10:19:52.841Z,32.59
2022-09-07T10:25:00.816Z,31.90
2022-09-07T10:30:13.812Z,31.78
2022-09-07T10:35:27.257Z,31.58
2022-09-07T10:40:40.531Z,31.25
2022-09-07T10:45:59.261Z,31.28
2022-09-07T10:51:14.404Z,31.24
2022-09-07T10:56:24.590Z,31.46
2022-09-07T11:01:43.738Z,31.25
2022-09-07T11:06:55.107Z,30.89
2022-09-07T11:12:05.459Z,30.73
2022-09-07T11:17:18.055Z,29.96
2022-09-07T11:22:35.336Z,29.01
2022-09-07T11:27:46.355Z,28.06
2022-09-07T11:33:01.735Z,27.52
2022-09-07T11:38:20.146Z,26.80
2022-09-07T11:43:30.778Z,26.13
2022-09-07T11:48:42.563Z,25.56
2022-09-07T11:53:52.873Z,25.77
2022-09-07T11:59:03.583Z,25.92
2022-09-07T12:04:40.167Z,25.72
2022-09-07T12:10:07.230Z,25.38
2022-09-07T12:15:26.951Z,25.47
2022-09-07T12:20:42.806Z,25.31
2022-09-07T12:25:49.797Z,25.09
2022-09-07T12:30:59.543Z,24.89
2022-09-07T12:36:41.525Z,24.92
2022-09-07T12:42:32.029Z,24.70
2022-09-07T12:47:34.218Z,24.53
2022-09-07T12:53:17.995Z,24.36
2022-09-07T12:58:38.008Z,24.50
2022-09-07T13:04:05.175Z,24.55
2022-09-07T13:09:31.269Z,24.62
2022-09-07T13:14:38.699Z,24.53
2022-09-07T13:20:06.825Z,24.65
2022-09-07T13:25:59.118Z,24.45
2022-09-07T13:31:24.103Z,24.28
2022-09-07T13:36:40.523Z,24.26
2022-09-07T13:41:52.244Z,24.49
2022-09-07T13:47:12.923Z,24.39
2022-09-07T13:52:24.688Z,24.21
2022-09-07T13:57:41.751Z,23.98
2022-09-07T14:02:56.590Z,23.83
2022-09-07T14:08:03.366Z,23.73
2022-09-07T14:13:14.063Z,23.81
2022-09-07T14:18:27.479Z,23.69
2022-09-07T14:23:36.725Z,23.60
2022-09-07T14:28:42.822Z,23.52
2022-09-07T14:33:52.800Z,23.37
2022-09-07T14:39:06.227Z,23.04
2022-09-07T14:44:30.292Z,22.61
2022-09-07T14:49:38.963Z,22.45
2022-09-07T14:54:50.742Z,22.33
2022-09-07T14:59:57.438Z,22.16
2022-09-07T15:05:25.759Z,22.09
2022-09-07T15:10:35.577Z,21.85
2022-09-07T15:15:46.730Z,21.72
2022-09-07T15:20:53.036Z,21.52
2022-09-07T15:25:59.007Z,21.40
2022-09-07T15:36:32.056Z,21.04
2022-09-07T15:42:59.536Z,20.95
2022-09-07T15:47:47.254Z,20.80
2022-09-07T15:52:53.106Z,20.68
2022-09-07T15:58:10.997Z,20.49
2022-09-07T16:06:57.273Z,20.23
2022-09-07T16:17:35.627Z,19.80
2022-09-07T16:28:08.871Z,19.32
2022-09-07T16:33:14.786Z,19.16
2022-09-07T16:43:46.627Z,18.64
2022-09-07T16:48:53.717Z,18.25
2022-09-07T16:53:59.773Z,17.97
2022-09-07T16:59:06.943Z,17.55
2022-09-07T17:04:13.053Z,17.08
2022-09-07T17:09:18.961Z,16.61
2022-09-07T17:14:24.835Z,16.16
2022-09-07T17:19:30.877Z,15.73
2022-09-07T17:24:37.100Z,15.33
2022-09-07T17:29:43.163Z,14.95
2022-09-07T17:34:49.497Z,14.59
2022-09-07T17:39:55.300Z,14.22
2022-09-07T17:45:02.716Z,13.85
2022-09-07T17:50:09.976Z,13.48
2022-09-07T17:55:16.057Z,13.17
2022-09-07T18:00:21.799Z,12.91
2022-09-07T18:05:27.531Z,12.64
2022-09-07T18:16:02.244Z,12.12
2022-09-07T18:21:15.449Z,11.92
2022-09-07T18:26:22.020Z,11.76
2022-09-07T18:31:28.310Z,11.65
2022-09-07T18:36:35.760Z,11.50
2022-09-07T18:41:42.126Z,11.42
2022-09-07T18:46:47.933Z,11.33
2022-09-07T18:57:19.333Z,11.13
2022-09-07T19:02:25.036Z,11.07
2022-09-07T19:07:31.143Z,10.96
2022-09-07T19:12:36.955Z,10.86
2022-09-07T19:17:42.761Z,10.89
2022-09-07T19:22:48.778Z,10.90
2022-09-07T19:27:54.655Z,10.86
2022-09-07T19:33:04.197Z,10.89
2022-09-07T19:38:12.543Z,10.96
2022-09-07T19:43:18.355Z,11.09
2022-09-07T19:48:24.094Z,11.11
2022-09-07T19:53:32.732Z,11.14
2022-09-07T19:58:40.317Z,11.20
2022-09-07T20:03:51.003Z,11.19
2022-09-07T20:08:57.805Z,11.18
2022-09-07T20:14:03.777Z,11.25
2022-09-07T20:19:11.087Z,11.43
2022-09-07T20:24:22.144Z,11.56
2022-09-07T20:29:28.998Z,11.64
2022-09-07T20:34:35.266Z,11.70
2022-09-07T20:39:40.923Z,11.66
2022-09-07T20:44:46.770Z,11.53
2022-09-07T20:49:52.545Z,11.47
2022-09-07T20:54:58.230Z,11.41
2022-09-07T21:00:05.823Z,11.36
2022-09-07T21:05:11.830Z,11.25
2022-09-07T21:10:17.630Z,11.14
2022-09-07T21:15:23.454Z,10.97
2022-09-07T21:20:29.136Z,10.74
2022-09-07T21:25:41.776Z,10.56
2022-09-07T21:30:57.489Z,10.43
2022-09-07T21:36:07.630Z,10.26
2022-09-07T21:41:15.575Z,10.09
2022-09-07T21:46:21.447Z,9.93
2022-09-07T21:51:27.979Z,9.78
2022-09-07T21:56:33.882Z,9.66
2022-09-07T22:01:40.802Z,9.55
2022-09-07T22:06:46.731Z,9.37
2022-09-07T22:11:52.622Z,9.27
2022-09-07T22:16:58.321Z,9.19
2022-09-07T22:22:04.174Z,9.06
2022-09-07T22:27:10.058Z,8.89
2022-09-07T22:32:15.745Z,8.79
2022-09-07T22:37:21.812Z,8.79
2022-09-07T22:42:27.588Z,8.77
2022-09-07T22:47:33.569Z,8.71
2022-09-07T22:52:39.478Z,8.60
2022-09-07T22:57:46.034Z,8.46
2022-09-07T23:02:51.879Z,8.35
2022-09-07T23:07:57.583Z,8.26
2022-09-07T23:13:03.805Z,8.18
2022-09-07T23:18:12.115Z,8.06
2022-09-07T23:23:18.479Z,7.99
2022-09-07T23:28:24.120Z,7.86
2022-09-07T23:33:30.418Z,7.79
2022-09-07T23:38:36.413Z,7.76
2022-09-07T23:43:44.149Z,7.73
2022-09-07T23:48:50.666Z,7.67
2022-09-07T23:53:56.430Z,7.56
2022-09-07T23:59:02.374Z,7.44
